Buoy 47557

sailwx.info

Track history (hours):
 
Tides and Currents Weather Stations Pressure Air Temp Water Temp Dewpoint Dewpoint Depression Visibility Wind Speed Wind Dir Waves Ship Positions

Drifting buoy 47557

Last reported at 2017-Apr-23 04:00 UTC. Time now 2017-Apr-23 05:18 UTC.
Position N 50°06' W 017°16'.

Barometer 1025.8 mb
Water temperature 12.4 ° C

Date/timePositionNaut miles runAvg speedWind from/ knotsBaromVisibWave heightAir tempDewpointWater temp
2017-Apr-23 04:00N 50°06' W 017°16'1 0.7 1025.8 12.4
2017-Apr-23 03:00N 50°05' W 017°15'1 1.3 1026.1 12.5
2017-Apr-23 02:00N 50°04' W 017°14'1 1.2 1026.6 12.5
2017-Apr-23 01:00N 50°03' W 017°14'1 0.7 1027.2 12.5
2017-Apr-23 00:00N 50°02' W 017°14'1 1.2 1027.5 12.5
2017-Apr-22 23:00N 50°01' W 017°14'1 0.7 1027.7 12.5
2017-Apr-22 22:00N 50°01' W 017°13'1 0.7 1027.7 12.5
2017-Apr-22 21:00N 50°00' W 017°13'1 0.6 1027.6 12.5
2017-Apr-22 20:00N 49°59' W 017°13'1 0.7 1027.4 12.5
2017-Apr-22 19:00N 49°59' W 017°12'1 1.2 1027.5 12.5
2017-Apr-22 18:00N 49°58' W 017°12'1 0.7 1027.8 12.5
2017-Apr-22 17:00N 49°57' W 017°11'1 0.6 1028.1 12.5
2017-Apr-22 16:00N 49°56' W 017°11'1 0.7 1028.3 12.6
2017-Apr-22 15:00N 49°56' W 017°11'1 0.6 1028.9 12.5
2017-Apr-22 14:00N 49°55' W 017°11'1 1.2 1029.2 12.5
2017-Apr-22 13:00N 49°54' W 017°11'1 0.6 1029.4 12.5
2017-Apr-22 12:00N 49°53' W 017°11'1 0.7 1029.8 12.5
2017-Apr-22 11:00N 49°53' W 017°10'1 1.2 1030.0 12.4
2017-Apr-22 10:00N 49°52' W 017°10'1 0.6 1029.9 12.4
2017-Apr-22 09:00N 49°51' W 017°10'1 0.6 1030.0 12.4
2017-Apr-22 08:00N 49°50' W 017°10'1 0.7 1030.0 12.4
2017-Apr-22 07:00N 49°50' W 017°10'1 1.2 1029.8 12.4
2017-Apr-22 06:00N 49°49' W 017°10'1 0.6 1029.5 12.4
2017-Apr-22 05:00N 49°48' W 017°10'1 0.7 1029.4 12.5
2017-Apr-22 04:00N 49°47' W 017°09'1 0.7 1029.5 12.4
2017-Apr-22 03:00N 49°47' W 017°08'1 1.2 1029.8 12.4
2017-Apr-22 02:00N 49°46' W 017°08'1 0.7 1030.3 12.4
2017-Apr-22 01:00N 49°45' W 017°08'1 0.6 1030.6 12.4
2017-Apr-22 00:00N 49°44' W 017°08'1 0.7 1031.0 12.5
2017-Apr-21 23:00N 49°44' W 017°07'0 0.0 1031.2 12.5
2017-Apr-21 22:00N 49°44' W 017°07'1 0.7 1031.3 12.5
2017-Apr-21 21:00N 49°43' W 017°08'1 0.6 1031.2 12.5
2017-Apr-21 20:00N 49°43' W 017°08'1 1.2 1030.9 12.5
2017-Apr-21 19:00N 49°41' W 017°08'1 0.7 1030.8 12.5
2017-Apr-21 18:00N 49°41' W 017°08'1 0.7 1030.7 12.6
2017-Apr-21 17:00N 49°40' W 017°08'1 0.6 1030.8 12.5
2017-Apr-21 16:00N 49°40' W 017°08'1 0.6 1031.1 12.6
2017-Apr-21 15:00N 49°39' W 017°08'2 0.9 1031.5 12.6
2017-Apr-21 13:00N 49°37' W 017°08'1 0.6 1031.8 12.6
2017-Apr-21 12:00N 49°37' W 017°08'1 0.6 1031.9 12.5
2017-Apr-21 11:00N 49°36' W 017°08'1 0.6 1032.2 12.5
2017-Apr-21 10:00N 49°35' W 017°08'0 0.4 1032.3 12.5
2017-Apr-21 09:00N 49°35' W 017°08'1 0.6 1032.2 12.5
2017-Apr-21 08:00N 49°35' W 017°08'0 0.0 1032.2 12.5
2017-Apr-21 07:00N 49°35' W 017°08'1 0.7 1032.0 12.5
2017-Apr-21 06:00N 49°34' W 017°09'1 0.6 1031.8 12.5
2017-Apr-21 05:00N 49°34' W 017°09'0 0.0 1031.8 12.5
2017-Apr-21 04:00N 49°34' W 017°09'1 0.7 1032.1 12.5
2017-Apr-21 03:00N 49°33' W 017°08'0 0.0 1032.4 12.5
2017-Apr-21 02:00N 49°33' W 017°08'1 0.7 1032.7 12.5
2017-Apr-21 01:00N 49°32' W 017°08'1 0.6 1033.3 12.5
2017-Apr-21 00:00N 49°32' W 017°08'1 0.8 1033.6 12.4
2017-Apr-20 23:00N 49°32' W 017°07'0 0.0 1033.8 12.4
2017-Apr-20 22:00N 49°32' W 017°07'1 0.7 1034.1 12.4
2017-Apr-20 21:00N 49°31' W 017°06'0 0.0 1033.9 12.4
2017-Apr-20 20:00N 49°31' W 017°06'1 0.7 1033.7 12.4
2017-Apr-20 19:00N 49°31' W 017°05'1 0.6 1033.6 12.4
2017-Apr-20 18:00N 49°30' W 017°05'1 1.0 1033.8 12.5
2017-Apr-20 17:00N 49°29' W 017°04'0 0.0 1033.9 12.5
2017-Apr-20 16:00N 49°29' W 017°04'1 0.7 1034.2 12.5
2017-Apr-20 15:00N 49°29' W 017°04'1 0.7 1034.9 12.4
2017-Apr-20 14:00N 49°28' W 017°03'0 0.4 1035.2 12.4
2017-Apr-20 13:00N 49°28' W 017°02'1 0.6 1035.4 12.4
2017-Apr-20 12:00N 49°28' W 017°02'0 0.0 1036.0 12.3
2017-Apr-20 11:00N 49°28' W 017°02'1 0.7 1035.9 12.3
2017-Apr-20 10:00N 49°27' W 017°02'1 0.6 1035.8 12.3
2017-Apr-20 09:00N 49°26' W 017°02'1 0.7 1035.8 12.3
2017-Apr-20 08:00N 49°26' W 017°01'0 0.0 1035.5 12.3
2017-Apr-20 07:00N 49°26' W 017°01'1 0.7 1035.2 12.3
2017-Apr-20 06:00N 49°25' W 017°01'1 0.6 1035.0 12.3
2017-Apr-20 05:00N 49°25' W 017°01'1 0.7 1034.8 12.4
2017-Apr-20 04:00N 49°24' W 017°00'1 0.7 1034.9 12.4
2017-Apr-20 03:00N 49°23' W 016°59'0 0.4 1035.0 12.4
2017-Apr-20 02:00N 49°23' W 016°59'1 0.6 1035.4 12.4
2017-Apr-20 01:00N 49°23' W 016°59'0 0.4 1035.5 12.4
2017-Apr-20 00:00N 49°23' W 016°58'1 0.6 1035.6 12.5
2017-Apr-19 23:00N 49°22' W 016°58'0 0.4 1035.7 12.5
2017-Apr-19 22:00N 49°22' W 016°58'1 0.6 1035.7 12.5
2017-Apr-19 21:00N 49°22' W 016°58'1 0.6 1035.4 12.5
2017-Apr-19 20:00N 49°21' W 016°58'1 0.7 1035.0 12.5
2017-Apr-19 19:00N 49°20' W 016°57'1 0.6 1034.6 12.5
2017-Apr-19 18:00N 49°20' W 016°57'0 0.4 1034.6 12.6
2017-Apr-19 17:00N 49°20' W 016°56'1 0.7 1034.4 12.6
2017-Apr-19 16:00N 49°19' W 016°56'1 0.7 1034.6 12.6
2017-Apr-19 15:00N 49°19' W 016°55'0 0.4 1034.9 12.6
2017-Apr-19 14:00N 49°19' W 016°55'1 0.7 1034.8 12.5
2017-Apr-19 13:00N 49°18' W 016°54'0 0.0 1035.2 12.5
2017-Apr-19 12:00N 49°18' W 016°54'1 0.7 1035.2 12.5
2017-Apr-19 11:00N 49°17' W 016°53'0 0.4 1035.3 12.4
2017-Apr-19 10:00N 49°17' W 016°53'0 0.0 1035.1 12.4
2017-Apr-19 09:00N 49°17' W 016°53'1 0.7 1034.8 12.4
2017-Apr-19 08:00N 49°17' W 016°52'1 0.6 1034.7 12.4
2017-Apr-19 07:00N 49°16' W 016°52'0 0.0 1034.3 12.4
2017-Apr-19 06:00N 49°16' W 016°52'1 0.7 1033.9 12.5
2017-Apr-19 05:00N 49°16' W 016°52'1 0.7 1033.9 12.5
2017-Apr-19 04:00N 49°15' W 016°51'1 0.6 1034.1 12.5
2017-Apr-19 03:00N 49°14' W 016°51'1 0.8 1034.3 12.5
2017-Apr-19 02:00N 49°14' W 016°50'1 0.7 1034.3 12.5
2017-Apr-19 01:00N 49°14' W 016°49'0 0.4 1034.4 12.5
2017-Apr-19 00:00N 49°14' W 016°49'1 0.7 1034.3 12.6
2017-Apr-18 23:00N 49°13' W 016°48'0 0.4 1034.4 12.6
2017-Apr-18 22:00N 49°13' W 016°47'0 0.0 1034.3 12.6
2017-Apr-18 21:00N 49°13' W 016°47'1 0.4 1033.9 12.6
2017-Apr-18 19:00N 49°13' W 016°47'1 0.6 1033.4 12.7
2017-Apr-18 18:00N 49°12' W 016°47'1 0.6 1033.2 12.7
2017-Apr-18 17:00N 49°11' W 016°47'0 0.4 1033.0 12.7
2017-Apr-18 16:00N 49°11' W 016°46'1 0.7 1032.7 12.7
2017-Apr-18 15:00N 49°11' W 016°46'0 0.4 1032.5 12.7
2017-Apr-18 14:00N 49°11' W 016°45'0 0.4 1032.6 12.6
2017-Apr-18 13:00N 49°11' W 016°44'1 0.7 1032.5 12.6
2017-Apr-18 12:00N 49°10' W 016°44'0 0.4 1032.7 12.5
2017-Apr-18 11:00N 49°10' W 016°43'0 0.4 1032.4 12.5
2017-Apr-18 10:00N 49°10' W 016°43'0 0.0 1032.2 12.5
2017-Apr-18 09:00N 49°10' W 016°43'1 0.7 1031.8 12.4
2017-Apr-18 08:00N 49°10' W 016°42'0 0.0 1031.5 12.5
2017-Apr-18 07:00N 49°10' W 016°42'3 0.4 1030.8 12.4
2017-Apr-17 22:00N 49°08' W 016°38'1 0.2 1029.1 12.5
2017-Apr-17 19:00N 49°07' W 016°37'1 0.6 1027.4 12.5
2017-Apr-17 18:00N 49°07' W 016°37'1 0.5 1027.1 12.5
2017-Apr-17 16:00N 49°06' W 016°36'0 0.4 1026.8 12.5
2017-Apr-17 15:00N 49°06' W 016°35'1 0.4 1026.9 12.5
2017-Apr-17 12:00N 49°05' W 016°34'0 0.4 1026.8 12.4
2017-Apr-17 11:00N 49°05' W 016°33'0 0.0 1026.5 12.4
2017-Apr-17 10:00N 49°05' W 016°33'0 0.4 1026.1 12.4
2017-Apr-17 09:00N 49°05' W 016°32'1 0.7 1025.9 12.4
2017-Apr-17 08:00N 49°05' W 016°32'0 0.0 1025.5 12.4
2017-Apr-17 07:00N 49°05' W 016°32'0 0.2 1025.3 12.4
2017-Apr-17 05:00N 49°05' W 016°31'1 0.7 1025.1 12.4
2017-Apr-17 04:00N 49°04' W 016°31'0 0.0 1025.2 12.4
2017-Apr-17 03:00N 49°04' W 016°31'0 0.4 1025.4 12.4
2017-Apr-17 02:00N 49°04' W 016°30'1 0.7 1025.9 12.4
2017-Apr-17 01:00N 49°04' W 016°29'0 0.4 1026.3 12.4
2017-Apr-17 00:00N 49°04' W 016°29'1 0.7 1026.4 12.4
2017-Apr-16 23:00N 49°03' W 016°28'0 0.4 1026.4 12.4
2017-Apr-16 22:00N 49°03' W 016°28'0 0.2 1026.4 12.4
2017-Apr-16 20:00N 49°03' W 016°27'1 0.4 1026.0 12.5
2017-Apr-16 18:00N 49°03' W 016°26'0 0.0 1026.1 12.5
2017-Apr-16 17:00N 49°03' W 016°26'1 0.7 1026.2 12.5
2017-Apr-16 16:00N 49°02' W 016°25'0 0.4 1026.5 12.5
2017-Apr-16 15:00N 49°02' W 016°25'0 0.0 1026.9 12.5
2017-Apr-16 13:00N 49°02' W 016°25'0 0.4 1027.4 12.5
2017-Apr-16 12:00N 49°02' W 016°24'1 0.7 1027.6 12.5
2017-Apr-16 11:00N 49°02' W 016°23'0 0.4 1027.4 12.4
2017-Apr-16 10:00N 49°02' W 016°23'0 0.4 1027.3 12.4
2017-Apr-16 09:00N 49°02' W 016°22'0 0.4 1027.0 12.4
2017-Apr-16 08:00N 49°02' W 016°22'1 0.6 1027.0 12.4
2017-Apr-16 07:00N 49°01' W 016°22'0 0.4 1026.6 12.4
2017-Apr-16 06:00N 49°01' W 016°21'0 0.4 1026.4 12.5
2017-Apr-16 05:00N 49°01' W 016°20'0 0.0 1026.4 12.4
2017-Apr-16 04:00N 49°01' W 016°20'0 0.0 1026.5 12.5
2017-Apr-16 03:00N 49°01' W 016°20'0 0.4 1026.7 12.5
2017-Apr-16 02:00N 49°01' W 016°20'0 0.4 1027.3 12.5
2017-Apr-16 01:00N 49°01' W 016°19'0 0.0 1027.4 12.5
2017-Apr-16 00:00N 49°01' W 016°19'0 0.0 1027.4 12.5
2017-Apr-15 23:00N 49°01' W 016°19'0 0.4 1027.2 12.5
2017-Apr-15 22:00N 49°01' W 016°19'0 0.0 1027.2 12.5
2017-Apr-15 21:00N 49°01' W 016°19'1 0.7 1026.6 12.6
2017-Apr-15 20:00N 49°01' W 016°18'0 0.0 1026.2 12.6
2017-Apr-15 19:00N 49°01' W 016°18'0 0.4 1025.9 12.7
2017-Apr-15 18:00N 49°01' W 016°17'1 0.7 1025.9 12.6
2017-Apr-15 17:00N 49°00' W 016°17'0 0.0 1026.2 12.6
2017-Apr-15 16:00N 49°00' W 016°17'0 0.4 1026.4 12.7
2017-Apr-15 15:00N 49°00' W 016°16'0 0.0 1026.5 12.9
2017-Apr-15 13:00N 49°00' W 016°16'0 0.4 1026.6 12.7
2017-Apr-15 12:00N 49°00' W 016°16'0 0.0 1026.8 12.6
2017-Apr-15 11:00N 49°00' W 016°16'0 0.4 1026.7 12.5
2017-Apr-15 10:00N 49°00' W 016°15'0 0.4 1026.0 12.4
2017-Apr-15 09:00N 49°00' W 016°14'0 0.0 1025.7 12.4
2017-Apr-15 08:00N 49°00' W 016°14'0 0.4 1025.1 12.4
2017-Apr-15 07:00N 49°00' W 016°14'0 0.4 1024.8 12.4
2017-Apr-15 06:00N 49°00' W 016°13'1 0.6 1024.5 12.4
2017-Apr-15 05:00N 49°01' W 016°13'0 0.0 1024.2 12.4
2017-Apr-15 04:00N 49°01' W 016°13'0 0.4 1024.0 12.4
2017-Apr-15 03:00N 49°01' W 016°13'0 0.0 1023.9 12.4
2017-Apr-15 02:00N 49°01' W 016°13'0 0.0 1024.1 12.4
2017-Apr-15 01:00N 49°01' W 016°13'0 0.0 1024.1 12.4
2017-Apr-15 00:00N 49°01' W 016°13'0 0.4 1023.9 12.4
2017-Apr-14 23:00N 49°01' W 016°12'0 0.4 1023.7 12.4
2017-Apr-14 22:00N 49°01' W 016°11'0 0.4 1023.7 12.4
2017-Apr-14 21:00N 49°01' W 016°11'0 0.0 1023.3 12.4
2017-Apr-14 20:00N 49°01' W 016°11'0 0.4 1022.6 12.4
2017-Apr-14 19:00N 49°01' W 016°10'0 0.4 1022.1 12.3
2017-Apr-14 18:00N 49°01' W 016°10'0 0.0 1022.0 12.5
2017-Apr-14 17:00N 49°01' W 016°10'0 0.4 1021.9 12.6
2017-Apr-14 16:00N 49°01' W 016°09'0 0.0 1022.0 12.5
2017-Apr-14 15:00N 49°01' W 016°09'0 0.0 1022.0 12.5
2017-Apr-14 14:00N 49°01' W 016°09'1 0.7 1022.2 12.5
2017-Apr-14 13:00N 49°01' W 016°08'0 0.0 1022.2 12.6
2017-Apr-14 12:00N 49°01' W 016°08'0 0.0 1022.3 12.5
2017-Apr-14 11:00N 49°01' W 016°08'0 0.0 1022.0 12.3
2017-Apr-14 10:00N 49°01' W 016°08'0 0.0 1021.8 12.2
2017-Apr-14 09:00N 49°01' W 016°08'1 0.7 1021.4 12.2
2017-Apr-14 08:00N 49°01' W 016°08'0 0.4 1021.1 12.2
2017-Apr-14 07:00N 49°01' W 016°07'0 0.0 1020.9 12.2
2017-Apr-14 06:00N 49°01' W 016°07'0 0.4 1020.7 12.1
2017-Apr-14 05:00N 49°01' W 016°07'0 0.4 1020.6 12.1
2017-Apr-14 04:00N 49°01' W 016°06'0 0.4 1020.9 12.1
2017-Apr-14 03:00N 49°01' W 016°05'0 0.0 1021.2 12.2
2017-Apr-14 02:00N 49°01' W 016°05'1 0.7 1021.6 12.2
2017-Apr-14 01:00N 49°01' W 016°05'0 0.0 1021.9 12.3
2017-Apr-14 00:00N 49°01' W 016°05'1 0.6 1022.2 12.4
2017-Apr-13 23:00N 49°02' W 016°05'0 0.4 1022.6 12.4
2017-Apr-13 22:00N 49°02' W 016°04'0 0.0 1022.7 12.5
2017-Apr-13 21:00N 49°02' W 016°04'0 0.0 1022.5 12.5
2017-Apr-13 20:00N 49°02' W 016°04'0 0.4 1022.2 12.5
2017-Apr-13 19:00N 49°02' W 016°04'0 0.0 1022.0 12.6
2017-Apr-13 18:00N 49°02' W 016°04'0 0.0 1022.4 12.7
2017-Apr-13 17:00N 49°02' W 016°04'1 0.4 1022.6 12.7
2017-Apr-13 15:00N 49°02' W 016°02'0 0.0 1023.1 12.6
2017-Apr-13 14:00N 49°02' W 016°02'0 0.4 1023.6 12.5
2017-Apr-13 13:00N 49°02' W 016°02'0 0.0 1023.9 12.4
2017-Apr-13 12:00N 49°02' W 016°02'1 0.7 1024.2 12.2
2017-Apr-13 11:00N 49°02' W 016°01'0 0.0 1024.5 12.1
2017-Apr-13 10:00N 49°02' W 016°01'0 0.4 1024.4 12.0
2017-Apr-13 09:00N 49°02' W 016°01'0 0.0 1024.3 12.0
2017-Apr-13 08:00N 49°02' W 016°01'1 0.7 1024.3 12.0
2017-Apr-13 07:00N 49°03' W 016°00'0 0.0 1024.2 12.0
2017-Apr-13 06:00N 49°03' W 016°00'0 0.0 1024.0 12.0
2017-Apr-13 05:00N 49°03' W 016°00'0 0.4 1024.2 12.0
2017-Apr-13 04:00N 49°03' W 015°59'   1024.5 12.0
Track history (hours):
 
Tides and Currents Weather Stations Pressure Air Temp Water Temp Dewpoint Dewpoint Depression Visibility Wind Speed Wind Dir Waves Ship Positions

Drifting buoy 47557

Last reported at 2017-Apr-23 04:00 UTC. Time now 2017-Apr-23 05:18 UTC.
Position N 50°06' W 017°16'.

Barometer 1025.8 mb
Water temperature 12.4 ° C

Date/timePositionNaut miles runAvg speedWind from/ knotsBaromVisibWave heightAir tempDewpointWater temp
2017-Apr-23 04:00N 50°06' W 017°16'1 0.7 1025.8 12.4
2017-Apr-23 03:00N 50°05' W 017°15'1 1.3 1026.1 12.5
2017-Apr-23 02:00N 50°04' W 017°14'1 1.2 1026.6 12.5
2017-Apr-23 01:00N 50°03' W 017°14'1 0.7 1027.2 12.5
2017-Apr-23 00:00N 50°02' W 017°14'1 1.2 1027.5 12.5
2017-Apr-22 23:00N 50°01' W 017°14'1 0.7 1027.7 12.5
2017-Apr-22 22:00N 50°01' W 017°13'1 0.7 1027.7 12.5
2017-Apr-22 21:00N 50°00' W 017°13'1 0.6 1027.6 12.5
2017-Apr-22 20:00N 49°59' W 017°13'1 0.7 1027.4 12.5
2017-Apr-22 19:00N 49°59' W 017°12'1 1.2 1027.5 12.5
2017-Apr-22 18:00N 49°58' W 017°12'1 0.7 1027.8 12.5
2017-Apr-22 17:00N 49°57' W 017°11'1 0.6 1028.1 12.5
2017-Apr-22 16:00N 49°56' W 017°11'1 0.7 1028.3 12.6
2017-Apr-22 15:00N 49°56' W 017°11'1 0.6 1028.9 12.5
2017-Apr-22 14:00N 49°55' W 017°11'1 1.2 1029.2 12.5
2017-Apr-22 13:00N 49°54' W 017°11'1 0.6 1029.4 12.5
2017-Apr-22 12:00N 49°53' W 017°11'1 0.7 1029.8 12.5
2017-Apr-22 11:00N 49°53' W 017°10'1 1.2 1030.0 12.4
2017-Apr-22 10:00N 49°52' W 017°10'1 0.6 1029.9 12.4
2017-Apr-22 09:00N 49°51' W 017°10'1 0.6 1030.0 12.4
2017-Apr-22 08:00N 49°50' W 017°10'1 0.7 1030.0 12.4
2017-Apr-22 07:00N 49°50' W 017°10'1 1.2 1029.8 12.4
2017-Apr-22 06:00N 49°49' W 017°10'1 0.6 1029.5 12.4
2017-Apr-22 05:00N 49°48' W 017°10'1 0.7 1029.4 12.5
2017-Apr-22 04:00N 49°47' W 017°09'1 0.7 1029.5 12.4
2017-Apr-22 03:00N 49°47' W 017°08'1 1.2 1029.8 12.4
2017-Apr-22 02:00N 49°46' W 017°08'1 0.7 1030.3 12.4
2017-Apr-22 01:00N 49°45' W 017°08'1 0.6 1030.6 12.4
2017-Apr-22 00:00N 49°44' W 017°08'1 0.7 1031.0 12.5
2017-Apr-21 23:00N 49°44' W 017°07'0 0.0 1031.2 12.5
2017-Apr-21 22:00N 49°44' W 017°07'1 0.7 1031.3 12.5
2017-Apr-21 21:00N 49°43' W 017°08'1 0.6 1031.2 12.5
2017-Apr-21 20:00N 49°43' W 017°08'1 1.2 1030.9 12.5
2017-Apr-21 19:00N 49°41' W 017°08'1 0.7 1030.8 12.5
2017-Apr-21 18:00N 49°41' W 017°08'1 0.7 1030.7 12.6
2017-Apr-21 17:00N 49°40' W 017°08'1 0.6 1030.8 12.5
2017-Apr-21 16:00N 49°40' W 017°08'1 0.6 1031.1 12.6
2017-Apr-21 15:00N 49°39' W 017°08'2 0.9 1031.5 12.6
2017-Apr-21 13:00N 49°37' W 017°08'1 0.6 1031.8 12.6
2017-Apr-21 12:00N 49°37' W 017°08'1 0.6 1031.9 12.5
2017-Apr-21 11:00N 49°36' W 017°08'1 0.6 1032.2 12.5
2017-Apr-21 10:00N 49°35' W 017°08'0 0.4 1032.3 12.5
2017-Apr-21 09:00N 49°35' W 017°08'1 0.6 1032.2 12.5
2017-Apr-21 08:00N 49°35' W 017°08'0 0.0 1032.2 12.5
2017-Apr-21 07:00N 49°35' W 017°08'1 0.7 1032.0 12.5
2017-Apr-21 06:00N 49°34' W 017°09'1 0.6 1031.8 12.5
2017-Apr-21 05:00N 49°34' W 017°09'0 0.0 1031.8 12.5
2017-Apr-21 04:00N 49°34' W 017°09'1 0.7 1032.1 12.5
2017-Apr-21 03:00N 49°33' W 017°08'0 0.0 1032.4 12.5
2017-Apr-21 02:00N 49°33' W 017°08'1 0.7 1032.7 12.5
2017-Apr-21 01:00N 49°32' W 017°08'1 0.6 1033.3 12.5
2017-Apr-21 00:00N 49°32' W 017°08'1 0.8 1033.6 12.4
2017-Apr-20 23:00N 49°32' W 017°07'0 0.0 1033.8 12.4
2017-Apr-20 22:00N 49°32' W 017°07'1 0.7 1034.1 12.4
2017-Apr-20 21:00N 49°31' W 017°06'0 0.0 1033.9 12.4
2017-Apr-20 20:00N 49°31' W 017°06'1 0.7 1033.7 12.4
2017-Apr-20 19:00N 49°31' W 017°05'1 0.6 1033.6 12.4
2017-Apr-20 18:00N 49°30' W 017°05'1 1.0 1033.8 12.5
2017-Apr-20 17:00N 49°29' W 017°04'0 0.0 1033.9 12.5
2017-Apr-20 16:00N 49°29' W 017°04'1 0.7 1034.2 12.5
2017-Apr-20 15:00N 49°29' W 017°04'1 0.7 1034.9 12.4
2017-Apr-20 14:00N 49°28' W 017°03'0 0.4 1035.2 12.4
2017-Apr-20 13:00N 49°28' W 017°02'1 0.6 1035.4 12.4
2017-Apr-20 12:00N 49°28' W 017°02'0 0.0 1036.0 12.3
2017-Apr-20 11:00N 49°28' W 017°02'1 0.7 1035.9 12.3
2017-Apr-20 10:00N 49°27' W 017°02'1 0.6 1035.8 12.3
2017-Apr-20 09:00N 49°26' W 017°02'1 0.7 1035.8 12.3
2017-Apr-20 08:00N 49°26' W 017°01'0 0.0 1035.5 12.3
2017-Apr-20 07:00N 49°26' W 017°01'1 0.7 1035.2 12.3
2017-Apr-20 06:00N 49°25' W 017°01'1 0.6 1035.0 12.3
2017-Apr-20 05:00N 49°25' W 017°01'1 0.7 1034.8 12.4
2017-Apr-20 04:00N 49°24' W 017°00'1 0.7 1034.9 12.4
2017-Apr-20 03:00N 49°23' W 016°59'0 0.4 1035.0 12.4
2017-Apr-20 02:00N 49°23' W 016°59'1 0.6 1035.4 12.4
2017-Apr-20 01:00N 49°23' W 016°59'0 0.4 1035.5 12.4
2017-Apr-20 00:00N 49°23' W 016°58'1 0.6 1035.6 12.5
2017-Apr-19 23:00N 49°22' W 016°58'0 0.4 1035.7 12.5
2017-Apr-19 22:00N 49°22' W 016°58'1 0.6 1035.7 12.5
2017-Apr-19 21:00N 49°22' W 016°58'1 0.6 1035.4 12.5
2017-Apr-19 20:00N 49°21' W 016°58'1 0.7 1035.0 12.5
2017-Apr-19 19:00N 49°20' W 016°57'1 0.6 1034.6 12.5
2017-Apr-19 18:00N 49°20' W 016°57'0 0.4 1034.6 12.6
2017-Apr-19 17:00N 49°20' W 016°56'1 0.7 1034.4 12.6
2017-Apr-19 16:00N 49°19' W 016°56'1 0.7 1034.6 12.6
2017-Apr-19 15:00N 49°19' W 016°55'0 0.4 1034.9 12.6
2017-Apr-19 14:00N 49°19' W 016°55'1 0.7 1034.8 12.5
2017-Apr-19 13:00N 49°18' W 016°54'0 0.0 1035.2 12.5
2017-Apr-19 12:00N 49°18' W 016°54'1 0.7 1035.2 12.5
2017-Apr-19 11:00N 49°17' W 016°53'0 0.4 1035.3 12.4
2017-Apr-19 10:00N 49°17' W 016°53'0 0.0 1035.1 12.4
2017-Apr-19 09:00N 49°17' W 016°53'1 0.7 1034.8 12.4
2017-Apr-19 08:00N 49°17' W 016°52'1 0.6 1034.7 12.4
2017-Apr-19 07:00N 49°16' W 016°52'0 0.0 1034.3 12.4
2017-Apr-19 06:00N 49°16' W 016°52'1 0.7 1033.9 12.5
2017-Apr-19 05:00N 49°16' W 016°52'1 0.7 1033.9 12.5
2017-Apr-19 04:00N 49°15' W 016°51'1 0.6 1034.1 12.5
2017-Apr-19 03:00N 49°14' W 016°51'1 0.8 1034.3 12.5
2017-Apr-19 02:00N 49°14' W 016°50'1 0.7 1034.3 12.5
2017-Apr-19 01:00N 49°14' W 016°49'0 0.4 1034.4 12.5
2017-Apr-19 00:00N 49°14' W 016°49'1 0.7 1034.3 12.6
2017-Apr-18 23:00N 49°13' W 016°48'0 0.4 1034.4 12.6
2017-Apr-18 22:00N 49°13' W 016°47'0 0.0 1034.3 12.6
2017-Apr-18 21:00N 49°13' W 016°47'1 0.4 1033.9 12.6
2017-Apr-18 19:00N 49°13' W 016°47'1 0.6 1033.4 12.7
2017-Apr-18 18:00N 49°12' W 016°47'1 0.6 1033.2 12.7
2017-Apr-18 17:00N 49°11' W 016°47'0 0.4 1033.0 12.7
2017-Apr-18 16:00N 49°11' W 016°46'1 0.7 1032.7 12.7
2017-Apr-18 15:00N 49°11' W 016°46'0 0.4 1032.5 12.7
2017-Apr-18 14:00N 49°11' W 016°45'0 0.4 1032.6 12.6
2017-Apr-18 13:00N 49°11' W 016°44'1 0.7 1032.5 12.6
2017-Apr-18 12:00N 49°10' W 016°44'0 0.4 1032.7 12.5
2017-Apr-18 11:00N 49°10' W 016°43'0 0.4 1032.4 12.5
2017-Apr-18 10:00N 49°10' W 016°43'0 0.0 1032.2 12.5
2017-Apr-18 09:00N 49°10' W 016°43'1 0.7 1031.8 12.4
2017-Apr-18 08:00N 49°10' W 016°42'0 0.0 1031.5 12.5
2017-Apr-18 07:00N 49°10' W 016°42'3 0.4 1030.8 12.4
2017-Apr-17 22:00N 49°08' W 016°38'1 0.2 1029.1 12.5
2017-Apr-17 19:00N 49°07' W 016°37'1 0.6 1027.4 12.5
2017-Apr-17 18:00N 49°07' W 016°37'1 0.5 1027.1 12.5
2017-Apr-17 16:00N 49°06' W 016°36'0 0.4 1026.8 12.5
2017-Apr-17 15:00N 49°06' W 016°35'1 0.4 1026.9 12.5
2017-Apr-17 12:00N 49°05' W 016°34'0 0.4 1026.8 12.4
2017-Apr-17 11:00N 49°05' W 016°33'0 0.0 1026.5 12.4
2017-Apr-17 10:00N 49°05' W 016°33'0 0.4 1026.1 12.4
2017-Apr-17 09:00N 49°05' W 016°32'1 0.7 1025.9 12.4
2017-Apr-17 08:00N 49°05' W 016°32'0 0.0 1025.5 12.4
2017-Apr-17 07:00N 49°05' W 016°32'0 0.2 1025.3 12.4
2017-Apr-17 05:00N 49°05' W 016°31'1 0.7 1025.1 12.4
2017-Apr-17 04:00N 49°04' W 016°31'0 0.0 1025.2 12.4
2017-Apr-17 03:00N 49°04' W 016°31'0 0.4 1025.4 12.4
2017-Apr-17 02:00N 49°04' W 016°30'1 0.7 1025.9 12.4
2017-Apr-17 01:00N 49°04' W 016°29'0 0.4 1026.3 12.4
2017-Apr-17 00:00N 49°04' W 016°29'1 0.7 1026.4 12.4
2017-Apr-16 23:00N 49°03' W 016°28'0 0.4 1026.4 12.4
2017-Apr-16 22:00N 49°03' W 016°28'0 0.2 1026.4 12.4
2017-Apr-16 20:00N 49°03' W 016°27'1 0.4 1026.0 12.5
2017-Apr-16 18:00N 49°03' W 016°26'0 0.0 1026.1 12.5
2017-Apr-16 17:00N 49°03' W 016°26'1 0.7 1026.2 12.5
2017-Apr-16 16:00N 49°02' W 016°25'0 0.4 1026.5 12.5
2017-Apr-16 15:00N 49°02' W 016°25'0 0.0 1026.9 12.5
2017-Apr-16 13:00N 49°02' W 016°25'0 0.4 1027.4 12.5
2017-Apr-16 12:00N 49°02' W 016°24'1 0.7 1027.6 12.5
2017-Apr-16 11:00N 49°02' W 016°23'0 0.4 1027.4 12.4
2017-Apr-16 10:00N 49°02' W 016°23'0 0.4 1027.3 12.4
2017-Apr-16 09:00N 49°02' W 016°22'0 0.4 1027.0 12.4
2017-Apr-16 08:00N 49°02' W 016°22'1 0.6 1027.0 12.4
2017-Apr-16 07:00N 49°01' W 016°22'0 0.4 1026.6 12.4
2017-Apr-16 06:00N 49°01' W 016°21'0 0.4 1026.4 12.5
2017-Apr-16 05:00N 49°01' W 016°20'0 0.0 1026.4 12.4
2017-Apr-16 04:00N 49°01' W 016°20'0 0.0 1026.5 12.5
2017-Apr-16 03:00N 49°01' W 016°20'0 0.4 1026.7 12.5
2017-Apr-16 02:00N 49°01' W 016°20'0 0.4 1027.3 12.5
2017-Apr-16 01:00N 49°01' W 016°19'0 0.0 1027.4 12.5
2017-Apr-16 00:00N 49°01' W 016°19'0 0.0 1027.4 12.5
2017-Apr-15 23:00N 49°01' W 016°19'0 0.4 1027.2 12.5
2017-Apr-15 22:00N 49°01' W 016°19'0 0.0 1027.2 12.5
2017-Apr-15 21:00N 49°01' W 016°19'1 0.7 1026.6 12.6
2017-Apr-15 20:00N 49°01' W 016°18'0 0.0 1026.2 12.6
2017-Apr-15 19:00N 49°01' W 016°18'0 0.4 1025.9 12.7
2017-Apr-15 18:00N 49°01' W 016°17'1 0.7 1025.9 12.6
2017-Apr-15 17:00N 49°00' W 016°17'0 0.0 1026.2 12.6
2017-Apr-15 16:00N 49°00' W 016°17'0 0.4 1026.4 12.7
2017-Apr-15 15:00N 49°00' W 016°16'0 0.0 1026.5 12.9
2017-Apr-15 13:00N 49°00' W 016°16'0 0.4 1026.6 12.7
2017-Apr-15 12:00N 49°00' W 016°16'0 0.0 1026.8 12.6
2017-Apr-15 11:00N 49°00' W 016°16'0 0.4 1026.7 12.5
2017-Apr-15 10:00N 49°00' W 016°15'0 0.4 1026.0 12.4
2017-Apr-15 09:00N 49°00' W 016°14'0 0.0 1025.7 12.4
2017-Apr-15 08:00N 49°00' W 016°14'0 0.4 1025.1 12.4
2017-Apr-15 07:00N 49°00' W 016°14'0 0.4 1024.8 12.4
2017-Apr-15 06:00N 49°00' W 016°13'1 0.6 1024.5 12.4
2017-Apr-15 05:00N 49°01' W 016°13'0 0.0 1024.2 12.4
2017-Apr-15 04:00N 49°01' W 016°13'0 0.4 1024.0 12.4
2017-Apr-15 03:00N 49°01' W 016°13'0 0.0 1023.9 12.4
2017-Apr-15 02:00N 49°01' W 016°13'0 0.0 1024.1 12.4
2017-Apr-15 01:00N 49°01' W 016°13'0 0.0 1024.1 12.4
2017-Apr-15 00:00N 49°01' W 016°13'0 0.4 1023.9 12.4
2017-Apr-14 23:00N 49°01' W 016°12'0 0.4 1023.7 12.4
2017-Apr-14 22:00N 49°01' W 016°11'0 0.4 1023.7 12.4
2017-Apr-14 21:00N 49°01' W 016°11'0 0.0 1023.3 12.4
2017-Apr-14 20:00N 49°01' W 016°11'0 0.4 1022.6 12.4
2017-Apr-14 19:00N 49°01' W 016°10'0 0.4 1022.1 12.3
2017-Apr-14 18:00N 49°01' W 016°10'0 0.0 1022.0 12.5
2017-Apr-14 17:00N 49°01' W 016°10'0 0.4 1021.9 12.6
2017-Apr-14 16:00N 49°01' W 016°09'0 0.0 1022.0 12.5
2017-Apr-14 15:00N 49°01' W 016°09'0 0.0 1022.0 12.5
2017-Apr-14 14:00N 49°01' W 016°09'1 0.7 1022.2 12.5
2017-Apr-14 13:00N 49°01' W 016°08'0 0.0 1022.2 12.6
2017-Apr-14 12:00N 49°01' W 016°08'0 0.0 1022.3 12.5
2017-Apr-14 11:00N 49°01' W 016°08'0 0.0 1022.0 12.3
2017-Apr-14 10:00N 49°01' W 016°08'0 0.0 1021.8 12.2
2017-Apr-14 09:00N 49°01' W 016°08'1 0.7 1021.4 12.2
2017-Apr-14 08:00N 49°01' W 016°08'0 0.4 1021.1 12.2
2017-Apr-14 07:00N 49°01' W 016°07'0 0.0 1020.9 12.2
2017-Apr-14 06:00N 49°01' W 016°07'0 0.4 1020.7 12.1
2017-Apr-14 05:00N 49°01' W 016°07'0 0.4 1020.6 12.1
2017-Apr-14 04:00N 49°01' W 016°06'0 0.4 1020.9 12.1
2017-Apr-14 03:00N 49°01' W 016°05'0 0.0 1021.2 12.2
2017-Apr-14 02:00N 49°01' W 016°05'1 0.7 1021.6 12.2
2017-Apr-14 01:00N 49°01' W 016°05'0 0.0 1021.9 12.3
2017-Apr-14 00:00N 49°01' W 016°05'1 0.6 1022.2 12.4
2017-Apr-13 23:00N 49°02' W 016°05'0 0.4 1022.6 12.4
2017-Apr-13 22:00N 49°02' W 016°04'0 0.0 1022.7 12.5
2017-Apr-13 21:00N 49°02' W 016°04'0 0.0 1022.5 12.5
2017-Apr-13 20:00N 49°02' W 016°04'0 0.4 1022.2 12.5
2017-Apr-13 19:00N 49°02' W 016°04'0 0.0 1022.0 12.6
2017-Apr-13 18:00N 49°02' W 016°04'0 0.0 1022.4 12.7
2017-Apr-13 17:00N 49°02' W 016°04'1 0.4 1022.6 12.7
2017-Apr-13 15:00N 49°02' W 016°02'0 0.0 1023.1 12.6
2017-Apr-13 14:00N 49°02' W 016°02'0 0.4 1023.6 12.5
2017-Apr-13 13:00N 49°02' W 016°02'0 0.0 1023.9 12.4
2017-Apr-13 12:00N 49°02' W 016°02'1 0.7 1024.2 12.2
2017-Apr-13 11:00N 49°02' W 016°01'0 0.0 1024.5 12.1
2017-Apr-13 10:00N 49°02' W 016°01'0 0.4 1024.4 12.0
2017-Apr-13 09:00N 49°02' W 016°01'0 0.0 1024.3 12.0
2017-Apr-13 08:00N 49°02' W 016°01'1 0.7 1024.3 12.0
2017-Apr-13 07:00N 49°03' W 016°00'0 0.0 1024.2 12.0
2017-Apr-13 06:00N 49°03' W 016°00'0 0.0 1024.0 12.0
2017-Apr-13 05:00N 49°03' W 016°00'0 0.4 1024.2 12.0
2017-Apr-13 04:00N 49°03' W 015°59'   1024.5 12.0

Dump ship's entire track history